Brasie Corners, New York
Current Conditions -  °F | °C
As of 2:58 AM on Tuesday 27 Jan 2015 (Local Time) from KGTB Reporting Station
Clear Clear  
Wind Chill: -16°   Ceiling: Unl
Heat Index:   Visibility: 10mi
Dew Point: -8°   Wind: 12mph
Humidity: 67%   Direction: 60°ENE
Pressure: 29.95"   Gusts: NA
Location:  44.3309°N, 75.4775°W
Report Text: KGTB 270758Z AUTO 06010KT 10SM CLR M17/M22 A2995 RMK AO2 SLP159 T11721220
Loading
Personal Weather Stations






























Interactive Weather Map New forecast layout! Learn more

10-Day Weather Forecast

Advertisements
Track Severe Weather on mobile